Terminal Aerodrome Forecast
Issued by NWS

Home | Current Version | Previous Version | Graphics & Text | Print | Product List | Glossary On
Versions: 1 2 3 4 5 6 7 8 9 10 11 12 13 14 15
518
FTUS42 KMHX 150559
TAFPGV
TAF
KPGV 150559Z 1506/1606 00000KT P6SM OVC009
     FM150900 00000KT 2SM BR SCT003 BKN005
     FM151300 VRB03KT P6SM SCT005
     FM151400 21004KT P6SM SCT040
      AMD LTD TO CLD VIS AND WIND=

USA.gov is the U.S. government's official web portal to all federal, state and local government web resources and services.